Time;durP1;ratioP1;P1;durP2;ratioP2;P2;SDS_P1;SDS_P2;PMS_P1;PMS_P2;Temp;Humidity;BMP_temperature;BMP_pressure;BME280_temperature;BME280_humidity;BME280_pressure;Samples;Min_cycle;Max_cycle;Signal;HPM_P1;HPM_P2
2022/04/01 00:00:54;;;;;;;27.17;11.07;;;-1.40;99.90;;;;;;4956427;28;20070;-74
2022/04/01 00:03:22;;;;;;;31.02;11.48;;;-1.40;99.90;;;;;;4953891;28;20047;-75
2022/04/01 00:05:49;;;;;;;23.60;10.35;;;-1.40;99.90;;;;;;4964566;28;20149;-74
2022/04/01 00:08:17;;;;;;;22.95;10.18;;;-1.40;99.90;;;;;;4948473;28;20089;-74
2022/04/01 00:10:44;;;;;;;22.17;9.57;;;-1.40;99.90;;;;;;4953652;28;20065;-73
2022/04/01 00:13:14;;;;;;;13.38;7.18;;;-1.50;99.90;;;;;;4965601;28;20047;-73
2022/04/01 00:15:43;;;;;;;16.48;8.55;;;-1.50;99.90;;;;;;4961701;28;20054;-74
2022/04/01 00:18:11;;;;;;;12.82;6.88;;;-1.50;99.90;;;;;;4963533;28;20051;-73
2022/04/01 00:20:38;;;;;;;16.55;7.03;;;-1.50;99.90;;;;;;4967972;28;20052;-73
2022/04/01 00:23:06;;;;;;;10.50;5.85;;;-1.50;99.90;;;;;;4955481;28;20070;-73
2022/04/01 00:25:34;;;;;;;11.98;5.93;;;-1.50;99.90;;;;;;4973248;28;20059;-72
2022/04/01 00:28:02;;;;;;;10.57;5.53;;;-1.50;99.90;;;;;;4974065;28;20046;-72
2022/04/01 00:30:29;;;;;;;11.00;6.18;;;-1.50;99.90;;;;;;4956783;28;20065;-72
2022/04/01 00:32:58;;;;;;;10.65;5.28;;;-1.50;99.90;;;;;;4972910;28;20050;-73
2022/04/01 00:35:25;;;;;;;9.30;5.03;;;-1.50;99.90;;;;;;4972688;28;20141;-73
2022/04/01 00:37:53;;;;;;;9.32;5.07;;;-1.50;99.90;;;;;;4955365;28;20296;-72
2022/04/01 00:40:21;;;;;;;10.23;5.40;;;-1.50;99.90;;;;;;4973517;28;20538;-72
2022/04/01 00:42:49;;;;;;;12.93;5.40;;;-1.50;99.90;;;;;;4951220;28;20055;-73
2022/04/01 00:45:17;;;;;;;10.95;5.95;;;-1.50;99.90;;;;;;4973587;28;20054;-72
2022/04/01 00:47:45;;;;;;;11.20;6.15;;;-1.50;99.90;;;;;;4964282;28;20449;-73
2022/04/01 00:50:14;;;;;;;8.02;5.25;;;-1.50;99.90;;;;;;4966468;28;20051;-73
2022/04/01 00:52:42;;;;;;;11.52;4.93;;;-1.50;99.90;;;;;;4972310;28;20066;-72
2022/04/01 00:55:10;;;;;;;9.00;4.82;;;-1.50;99.90;;;;;;4970816;28;20089;-72
2022/04/01 00:57:39;;;;;;;8.43;4.93;;;-1.60;99.90;;;;;;4960506;28;20055;-72
2022/04/01 01:00:08;;;;;;;7.80;4.65;;;-1.60;99.90;;;;;;4955580;28;20054;-73
2022/04/01 01:02:36;;;;;;;12.82;5.10;;;-1.60;99.90;;;;;;4957584;28;20157;-73
2022/04/01 01:05:04;;;;;;;10.20;6.18;;;-1.60;99.90;;;;;;4963708;28;20067;-72
2022/04/01 01:07:34;;;;;;;15.45;6.53;;;-1.60;99.90;;;;;;4966954;28;20061;-72
2022/04/01 01:10:02;;;;;;;15.60;7.32;;;-1.60;99.90;;;;;;4960378;28;20047;-72
2022/04/01 01:12:31;;;;;;;12.75;6.60;;;-1.60;99.90;;;;;;4953992;28;20089;-73
2022/04/01 01:15:08;;;;;;;15.50;7.22;;;-1.60;99.90;;;;;;4955978;28;20065;-73
2022/04/01 01:17:35;;;;;;;9.38;6.18;;;-1.60;99.90;;;;;;4938893;28;20470;-73
2022/04/01 01:20:02;;;;;;;13.20;6.82;;;-1.60;99.90;;;;;;4972843;28;20059;-73
2022/04/01 01:22:34;;;;;;;10.48;6.65;;;-1.50;99.90;;;;;;4967762;28;20050;-73
2022/04/01 01:25:03;;;;;;;14.55;7.18;;;-1.50;99.90;;;;;;4959861;28;20075;-72
2022/04/01 01:27:30;;;;;;;11.80;5.93;;;-1.50;99.90;;;;;;4968675;28;20574;-73
2022/04/01 01:29:58;;;;;;;12.00;5.78;;;-1.50;99.90;;;;;;4973309;28;20503;-73
2022/04/01 01:32:28;;;;;;;12.70;5.95;;;-1.50;99.90;;;;;;4955934;28;20109;-73
2022/04/01 01:34:56;;;;;;;13.55;6.88;;;-1.60;99.90;;;;;;4948646;28;20389;-73
2022/04/01 01:37:23;;;;;;;8.60;5.25;;;-1.60;99.90;;;;;;4934096;28;20089;-73
2022/04/01 01:39:51;;;;;;;11.10;5.43;;;-1.60;99.90;;;;;;4971702;28;20533;-73
2022/04/01 01:42:20;;;;;;;9.85;6.40;;;-1.60;99.90;;;;;;4953111;28;20583;-72
2022/04/01 01:44:48;;;;;;;10.30;5.80;;;-1.70;99.90;;;;;;4954463;28;20047;-72
2022/04/01 01:47:15;;;;;;;8.95;5.32;;;-1.70;99.90;;;;;;4938624;28;20439;-72
2022/04/01 01:54:42;;;;;;;10.18;5.78;;;-1.70;99.90;;;;;;4935995;28;20061;-74
2022/04/01 01:55:16;;;;;;;12.27;5.65;;;-1.70;99.90;;;;;;4971795;28;20054;-74
2022/04/01 01:57:45;;;;;;;8.77;5.57;;;-1.70;99.90;;;;;;4955068;28;20050;-75
2022/04/01 02:00:20;;;;;;;12.57;5.70;;;-1.70;99.90;;;;;;4954476;28;20065;-74
2022/04/01 02:02:47;;;;;;;11.13;5.43;;;-1.70;99.90;;;;;;4946806;28;20055;-75
2022/04/01 02:05:16;;;;;;;11.20;6.20;;;-1.70;99.90;;;;;;4951335;28;20059;-75
2022/04/01 02:07:47;;;;;;;11.30;6.18;;;-1.80;99.90;;;;;;4953984;28;20049;-74
2022/04/01 02:10:15;;;;;;;14.85;6.90;;;-1.80;99.90;;;;;;4952277;28;20055;-74
2022/04/01 02:12:43;;;;;;;12.35;5.97;;;-1.80;99.90;;;;;;4945115;28;20055;-74
2022/04/01 02:15:13;;;;;;;19.58;9.55;;;-1.90;99.90;;;;;;4970878;28;20066;-74
2022/04/01 02:17:41;;;;;;;15.57;7.50;;;-1.90;99.90;;;;;;4970775;28;20142;-71
2022/04/01 02:20:10;;;;;;;20.75;10.35;;;-1.90;99.90;;;;;;4955126;28;20061;-72
2022/04/01 02:22:38;;;;;;;21.75;9.05;;;-2.00;99.90;;;;;;4969482;28;20059;-74
2022/04/01 02:25:08;;;;;;;26.33;11.65;;;-2.00;99.90;;;;;;4954420;28;20054;-74
2022/04/01 02:27:36;;;;;;;32.78;12.13;;;-2.10;99.90;;;;;;4937272;28;20463;-74
2022/04/01 02:30:11;;;;;;;29.15;12.57;;;-2.20;99.90;;;;;;4954315;28;20058;-73
2022/04/01 02:33:00;;;;;;;25.70;11.70;;;-2.30;99.90;;;;;;4953236;28;20106;-73
2022/04/01 02:35:31;;;;;;;27.23;12.13;;;-2.30;99.90;;;;;;4943935;28;20042;-73
2022/04/01 02:37:59;;;;;;;30.08;12.68;;;-2.40;99.90;;;;;;4957691;28;20067;-73
2022/04/01 02:40:27;;;;;;;35.33;14.25;;;-2.40;99.90;;;;;;4946842;28;20062;-73
2022/04/01 02:42:55;;;;;;;27.55;10.52;;;-2.40;99.90;;;;;;4968725;28;20055;-72
2022/04/01 02:45:24;;;;;;;27.13;12.45;;;-2.50;99.90;;;;;;4936035;29;20059;-74
2022/04/01 02:47:52;;;;;;;37.63;12.85;;;-2.40;99.90;;;;;;4950100;28;20054;-74
2022/04/01 02:50:21;;;;;;;35.55;12.68;;;-2.40;99.90;;;;;;4953450;28;20137;-74
2022/04/01 02:52:48;;;;;;;33.13;12.57;;;-2.50;99.90;;;;;;4924891;29;20051;-74
2022/04/01 02:55:16;;;;;;;33.45;14.65;;;-2.50;99.90;;;;;;4968471;28;20082;-75
2022/04/01 02:57:44;;;;;;;40.72;13.32;;;-2.50;99.90;;;;;;4953123;28;20058;-74
2022/04/01 03:00:21;;;;;;;36.55;14.52;;;-2.60;99.90;;;;;;4954562;28;20070;-74
2022/04/01 03:02:55;;;;;;;32.38;13.20;;;-2.60;99.90;;;;;;4952843;28;20150;-74
2022/04/01 03:05:25;;;;;;;31.33;13.68;;;-2.70;99.90;;;;;;4957715;28;20073;-74
2022/04/01 03:07:52;;;;;;;28.70;11.95;;;-2.70;99.90;;;;;;4960354;28;20067;-73
2022/04/01 03:10:23;;;;;;;36.10;13.07;;;-2.70;99.90;;;;;;4936027;29;20055;-73
2022/04/01 03:12:51;;;;;;;30.92;14.18;;;-2.60;99.90;;;;;;4949355;28;20057;-73
2022/04/01 03:15:24;;;;;;;37.10;14.75;;;-2.50;99.90;;;;;;4953772;28;20540;-74
2022/04/01 03:18:14;;;;;;;33.97;15.27;;;-2.50;99.90;;;;;;4940523;28;20050;-74
2022/04/01 03:20:46;;;;;;;35.60;14.57;;;-2.60;99.90;;;;;;4942407;28;20151;-74
2022/04/01 03:23:14;;;;;;;41.58;14.73;;;-2.60;99.90;;;;;;4972617;28;20423;-74
2022/04/01 03:25:43;;;;;;;35.33;14.38;;;-2.60;99.90;;;;;;4955106;28;20086;-74
2022/04/01 03:28:26;;;;;;;61.35;17.48;;;-2.60;99.90;;;;;;4945603;28;20051;-73
2022/04/01 03:31:07;;;;;;;34.28;14.32;;;-2.60;99.90;;;;;;4954198;29;20057;-74
2022/04/01 03:33:39;;;;;;;37.60;14.68;;;-2.50;99.90;;;;;;4925186;28;20065;-73
2022/04/01 03:36:13;;;;;;;42.53;13.82;;;-2.50;99.90;;;;;;4941262;28;20153;-73
2022/04/01 03:38:46;;;;;;;44.85;17.35;;;-2.50;99.90;;;;;;4973862;28;20056;-73
2022/04/01 03:41:24;;;;;;;39.58;16.40;;;-2.40;99.90;;;;;;4954804;28;20048;-74
2022/04/01 03:44:04;;;;;;;39.80;14.85;;;-2.40;99.90;;;;;;4939372;28;20062;-75
2022/04/01 03:46:51;;;;;;;36.78;14.73;;;-2.40;99.90;;;;;;4955844;28;20066;-74
2022/04/01 03:49:23;;;;;;;44.00;15.25;;;-2.30;99.90;;;;;;4959477;28;20067;-73
2022/04/01 03:51:56;;;;;;;40.10;15.82;;;-2.30;99.90;;;;;;4955791;28;20515;-73
2022/04/01 03:54:26;;;;;;;43.40;17.08;;;-2.20;99.90;;;;;;4961500;28;20055;-74
2022/04/01 03:57:04;;;;;;;53.72;18.05;;;-2.20;99.90;;;;;;4955299;28;20058;-74
2022/04/01 03:59:55;;;;;;;47.80;17.60;;;-2.20;99.90;;;;;;4955601;28;20051;-73
2022/04/01 04:02:24;;;;;;;37.88;15.00;;;-2.30;99.90;;;;;;4970234;28;20063;-75
2022/04/01 04:04:53;;;;;;;33.63;14.55;;;-2.30;99.90;;;;;;4941147;29;20538;-74
2022/04/01 04:07:24;;;;;;;45.55;15.27;;;-2.20;99.90;;;;;;4953533;29;20415;-74
2022/04/01 04:09:53;;;;;;;37.85;15.60;;;-2.20;99.90;;;;;;4969655;28;20059;-74
2022/04/01 04:12:22;;;;;;;39.85;16.55;;;-2.20;99.90;;;;;;4951401;28;20142;-74
2022/04/01 04:14:58;;;;;;;45.65;16.02;;;-2.20;99.90;;;;;;4959557;28;20393;-74
2022/04/01 04:17:42;;;;;;;39.38;16.25;;;-2.20;99.90;;;;;;4942833;28;20401;-73
2022/04/01 04:20:14;;;;;;;43.83;18.40;;;-2.30;99.90;;;;;;4949052;28;20065;-74
2022/04/01 04:23:03;;;;;;;41.17;17.70;;;-2.30;99.90;;;;;;4972163;28;20067;-75
2022/04/01 04:25:37;;;;;;;40.42;18.30;;;-2.30;99.90;;;;;;4963339;28;20062;-73
2022/04/01 04:28:12;;;;;;;45.42;19.30;;;-2.30;99.90;;;;;;4970982;28;20062;-74
2022/04/01 04:30:51;;;;;;;41.97;20.30;;;-2.40;99.90;;;;;;4926485;28;20066;-75
2022/04/01 04:33:49;;;;;;;44.65;23.33;;;-2.40;99.90;;;;;;4947370;28;20089;-74
2022/04/01 04:36:38;;;;;;;67.55;39.65;;;-2.40;99.90;;;;;;4956741;28;20055;-75
2022/04/01 04:39:09;;;;;;;115.38;68.05;;;-2.30;99.90;;;;;;4963228;28;20062;-75
2022/04/01 04:41:38;;;;;;;96.18;58.15;;;-2.30;99.90;;;;;;4973971;28;20051;-74
2022/04/01 04:44:11;;;;;;;79.70;43.33;;;-2.30;99.90;;;;;;4933421;29;20053;-74
2022/04/01 04:46:45;;;;;;;81.78;48.70;;;-2.20;99.90;;;;;;4928699;28;20207;-74
2022/04/01 04:49:14;;;;;;;84.05;45.83;;;-2.20;99.90;;;;;;4945812;29;20161;-74
2022/04/01 04:51:42;;;;;;;69.60;37.95;;;-2.10;99.90;;;;;;4937112;29;20090;-74
2022/04/01 04:54:25;;;;;;;84.35;45.53;;;-2.10;99.90;;;;;;4951074;28;20062;-74
2022/04/01 04:57:22;;;;;;;59.03;34.30;;;-2.00;99.90;;;;;;4946396;28;20058;-74
2022/04/01 04:59:51;;;;;;;69.18;34.75;;;-2.00;99.90;;;;;;4954552;28;20078;-74
2022/04/01 05:02:39;;;;;;;57.25;34.08;;;-1.90;99.90;;;;;;4951645;28;20586;-74
2022/04/01 05:05:13;;;;;;;70.20;32.60;;;-1.80;99.90;;;;;;4946014;28;20468;-75
2022/04/01 05:08:09;;;;;;;65.07;33.15;;;-1.80;99.90;;;;;;4972622;28;20530;-74
2022/04/01 05:11:07;;;;;;;50.33;28.10;;;-1.70;99.90;;;;;;4937647;28;20059;-73
2022/04/01 05:13:49;;;;;;;74.50;31.80;;;-1.60;99.90;;;;;;4938587;28;20562;-75
2022/04/01 05:16:33;;;;;;;63.10;30.63;;;-1.60;99.90;;;;;;4968455;28;20057;-74
2022/04/01 05:19:05;;;;;;;62.15;30.88;;;-1.40;99.90;;;;;;4966239;28;20516;-75
2022/04/01 05:22:00;;;;;;;48.13;29.55;;;-1.40;99.90;;;;;;4968811;28;20579;-74
2022/04/01 05:24:38;;;;;;;43.03;24.98;;;-1.30;99.90;;;;;;4959135;28;20050;-76
2022/04/01 05:27:19;;;;;;;50.58;22.15;;;-1.20;99.90;;;;;;4947407;29;20062;-75
2022/04/01 05:30:12;;;;;;;54.45;24.27;;;-1.10;99.90;;;;;;4945947;28;20050;-76
2022/04/01 05:33:06;;;;;;;38.50;19.95;;;-0.90;99.90;;;;;;4957353;28;20054;-75
2022/04/01 05:35:37;;;;;;;39.13;19.83;;;-0.80;99.90;;;;;;4964370;28;20050;-77
2022/04/01 05:38:08;;;;;;;46.23;19.67;;;-0.80;99.90;;;;;;4966991;28;20055;-74
2022/04/01 05:40:39;;;;;;;36.30;15.63;;;-0.70;99.90;;;;;;4924443;28;20093;-74
2022/04/01 05:43:11;;;;;;;25.33;12.77;;;-0.60;99.90;;;;;;4939886;28;20154;-80
2022/04/01 05:45:58;;;;;;;29.73;11.38;;;-0.50;99.90;;;;;;4971533;28;20056;-81
2022/04/01 05:48:29;;;;;;;21.75;11.25;;;-0.30;99.90;;;;;;4962664;28;20242;-79
2022/04/01 05:50:57;;;;;;;40.50;12.70;;;-0.20;99.90;;;;;;4932156;28;20051;-81
2022/04/01 05:53:29;;;;;;;23.30;9.85;;;-0.10;99.90;;;;;;4927876;28;20423;-80
2022/04/01 05:55:57;;;;;;;21.73;10.05;;;0.00;99.90;;;;;;4961203;28;20062;-79
2022/04/01 05:58:27;;;;;;;16.50;8.68;;;0.10;99.90;;;;;;4961405;28;20093;-80
2022/04/01 06:01:06;;;;;;;16.25;8.48;;;0.20;99.90;;;;;;4951293;28;20054;-80
2022/04/01 06:04:20;;;;;;;16.73;6.88;;;0.40;99.90;;;;;;4974067;28;20054;-80
2022/04/01 06:06:51;;;;;;;14.55;6.13;;;0.50;99.90;;;;;;4949255;28;20411;-79
2022/04/01 06:09:36;;;;;;;15.45;6.60;;;0.80;99.90;;;;;;4947321;29;20061;-78
2022/04/01 06:12:24;;;;;;;14.95;6.90;;;1.40;99.90;;;;;;4968253;28;20055;-79
2022/04/01 06:15:23;;;;;;;14.68;6.00;;;2.30;99.90;;;;;;4955586;28;20423;-79
2022/04/01 06:18:23;;;;;;;11.93;5.45;;;3.40;99.90;;;;;;4962247;28;20050;-79
2022/04/01 06:20:54;;;;;;;9.23;5.47;;;4.40;99.90;;;;;;4977828;28;20059;-80
2022/04/01 06:23:41;;;;;;;14.85;6.43;;;5.10;99.90;;;;;;4954871;28;20134;-81
2022/04/01 06:26:14;;;;;;;14.38;5.90;;;5.70;99.90;;;;;;4950240;28;20074;-81
2022/04/01 06:29:03;;;;;;;14.57;6.28;;;6.40;99.90;;;;;;4977560;28;20057;-76
2022/04/01 06:31:33;;;;;;;15.88;6.40;;;6.70;99.90;;;;;;4964412;28;20051;-76
2022/04/01 06:34:09;;;;;;;17.83;6.55;;;7.10;99.90;;;;;;4950894;28;20061;-75
2022/04/01 06:37:04;;;;;;;15.68;5.88;;;7.30;99.30;;;;;;4968652;28;20496;-74
2022/04/01 06:39:53;;;;;;;10.70;5.00;;;7.70;96.50;;;;;;4951899;29;20058;-81
2022/04/01 06:42:28;;;;;;;15.40;5.90;;;8.20;94.50;;;;;;4936294;29;20078;-75
2022/04/01 06:45:19;;;;;;;17.58;5.32;;;8.60;91.10;;;;;;4941744;29;20463;-75
2022/04/01 06:47:57;;;;;;;14.85;5.32;;;8.90;90.00;;;;;;4945549;28;20081;-76
2022/04/01 06:50:26;;;;;;;8.85;5.05;;;9.30;85.20;;;;;;4968369;28;20135;-74
2022/04/01 06:52:54;;;;;;;11.93;5.57;;;9.60;81.30;;;;;;4964671;28;20514;-76
2022/04/01 06:55:52;;;;;;;10.40;4.85;;;9.70;81.10;;;;;;4908187;28;20056;-74
2022/04/01 06:58:26;;;;;;;13.20;5.55;;;10.10;77.70;;;;;;4968647;28;20141;-79
2022/04/01 07:01:00;;;;;;;9.52;4.38;;;10.30;76.00;;;;;;4964246;28;20062;-82
2022/04/01 07:03:31;;;;;;;15.93;5.03;;;10.50;73.90;;;;;;4939778;28;20094;-87
2022/04/01 07:05:59;;;;;;;13.25;5.05;;;10.60;72.80;;;;;;4972730;28;20105;-82
2022/04/01 07:08:27;;;;;;;9.77;5.45;;;10.80;71.00;;;;;;4961743;28;20118;-83
2022/04/01 07:10:54;;;;;;;9.95;5.07;;;11.10;69.20;;;;;;4974736;28;20047;-83
2022/04/01 07:13:22;;;;;;;17.10;5.88;;;11.20;67.70;;;;;;4973047;28;20051;-82
2022/04/01 07:15:50;;;;;;;16.33;5.25;;;11.40;66.80;;;;;;4959323;28;20051;-82
2022/04/01 07:18:18;;;;;;;28.00;6.20;;;11.50;65.90;;;;;;4972724;28;20145;-81
2022/04/01 07:20:52;;;;;;;15.60;4.90;;;11.70;64.80;;;;;;4973972;28;20561;-81
2022/04/01 07:23:23;;;;;;;9.48;5.07;;;11.90;64.30;;;;;;4973119;28;20081;-81
2022/04/01 07:26:00;;;;;;;18.20;5.63;;;12.10;63.50;;;;;;4969503;28;20527;-82
2022/04/01 07:28:41;;;;;;;17.48;4.97;;;12.30;62.80;;;;;;4945184;28;20412;-81
2022/04/01 07:34:16;;;;;;;14.02;4.90;;;12.40;60.40;;;;;;4973120;28;20066;-82
2022/04/01 07:36:48;;;;;;;15.82;5.10;;;12.30;60.60;;;;;;4957300;28;20101;-80
2022/04/01 07:39:18;;;;;;;19.90;4.95;;;12.30;60.60;;;;;;4958343;28;20058;-83
2022/04/01 07:41:49;;;;;;;10.95;4.40;;;12.50;60.40;;;;;;4973976;28;20062;-81
2022/04/01 07:44:20;;;;;;;9.18;3.72;;;12.90;58.90;;;;;;4938274;29;20055;-82
2022/04/01 07:46:53;;;;;;;11.38;3.88;;;12.90;58.40;;;;;;4926856;28;20673;-83
2022/04/01 07:49:27;;;;;;;11.13;4.30;;;13.10;57.60;;;;;;4957885;28;20113;-85
2022/04/01 07:52:04;;;;;;;14.00;4.38;;;13.40;57.50;;;;;;4957948;28;20058;-83
2022/04/01 07:54:33;;;;;;;10.57;3.75;;;13.90;56.70;;;;;;4953484;28;20074;-84
2022/04/01 07:57:00;;;;;;;14.95;3.45;;;14.10;55.70;;;;;;4954976;28;20114;-84
2022/04/01 07:59:31;;;;;;;15.63;4.32;;;14.30;54.10;;;;;;4956043;28;20054;-81
2022/04/01 08:02:08;;;;;;;292.23;18.58;;;14.10;53.70;;;;;;4959128;28;20066;-81
2022/04/01 08:04:46;;;;;;;31.50;5.10;;;14.10;54.10;;;;;;4967164;28;20054;-79
2022/04/01 08:07:24;;;;;;;14.93;4.65;;;13.90;54.10;;;;;;4953251;28;20060;-78
2022/04/01 08:10:01;;;;;;;11.07;4.43;;;13.80;54.10;;;;;;4955531;28;20094;-75
2022/04/01 08:12:57;;;;;;;14.52;4.50;;;12.60;54.00;;;;;;4956604;28;20223;-77
2022/04/01 08:15:36;;;;;;;8.23;4.07;;;11.10;56.00;;;;;;4939245;28;20507;-80
2022/04/01 08:18:23;;;;;;;12.93;4.43;;;10.30;59.70;;;;;;4970291;28;20113;-79
2022/04/01 08:21:14;;;;;;;;;;;10.90;59.50;;;;;;4959104;28;20061;-78
2022/04/01 08:23:56;;;;;;;16.02;4.63;;;10.70;60.00;;;;;;4953283;28;19926;-79
2022/04/01 08:26:44;;;;;;;17.98;5.00;;;11.90;59.50;;;;;;4922353;28;20508;-80
2022/04/01 08:29:22;;;;;;;21.83;5.57;;;13.00;57.40;;;;;;4970330;28;20592;-80
2022/04/01 08:32:24;;;;;;;17.75;4.95;;;12.90;54.90;;;;;;4928420;29;20056;-76
2022/04/01 08:34:58;;;;;;;17.80;4.78;;;11.40;55.60;;;;;;4916650;29;20060;-77
2022/04/01 08:40:44;;;;;;;18.77;4.13;;;8.40;60.80;;;;;;4814252;29;20062;-77
2022/04/01 08:43:12;;;;;;;22.38;4.25;;;8.50;64.50;;;;;;4801403;29;20076;-82
2022/04/01 08:45:45;;;;;;;18.15;4.40;;;10.30;62.90;;;;;;4802906;29;20074;-80
2022/04/01 08:48:14;;;;;;;23.90;4.90;;;11.80;58.40;;;;;;4798347;29;20399;-78
2022/04/01 08:50:43;;;;;;;45.38;7.18;;;13.00;56.30;;;;;;4814861;29;20142;-78
2022/04/01 08:53:12;;;;;;;26.00;5.57;;;14.20;54.60;;;;;;4796291;29;20080;-78
2022/04/01 08:55:40;;;;;;;13.55;4.68;;;15.10;52.50;;;;;;4818175;29;20102;-77
2022/04/01 08:58:09;;;;;;;21.45;5.13;;;16.00;50.90;;;;;;4821213;29;20062;-78
2022/04/01 09:00:38;;;;;;;14.30;3.97;;;16.70;48.60;;;;;;4819685;29;20477;-79
2022/04/01 09:03:10;;;;;;;10.07;3.42;;;17.20;46.50;;;;;;4819494;29;20058;-79
2022/04/01 09:05:39;;;;;;;15.23;3.50;;;17.30;45.10;;;;;;4800858;29;20058;-78
2022/04/01 09:08:14;;;;;;;10.18;3.03;;;17.40;44.20;;;;;;4802887;29;20149;-79
2022/04/01 09:10:56;;;;;;;10.85;3.15;;;17.70;44.40;;;;;;4820106;29;20064;-78
2022/04/01 09:13:28;;;;;;;18.60;4.90;;;17.80;43.20;;;;;;4800406;29;20166;-78
2022/04/01 09:15:57;;;;;;;21.98;6.22;;;18.20;43.40;;;;;;4817050;29;20694;-80
2022/04/01 09:18:41;;;;;;;15.70;5.82;;;18.40;43.20;;;;;;4800430;29;20054;-81
2022/04/01 09:21:12;;;;;;;21.42;4.57;;;18.70;42.20;;;;;;4817700;29;20061;-78
2022/04/01 09:23:41;;;;;;;19.92;4.90;;;19.00;42.20;;;;;;4798773;29;20066;-78
2022/04/01 09:26:09;;;;;;;16.35;4.35;;;19.60;41.40;;;;;;4792316;29;20123;-78
2022/04/01 09:28:41;;;;;;;13.13;4.80;;;20.10;40.80;;;;;;4797387;29;20051;-80
2022/04/01 09:31:11;;;;;;;13.98;3.80;;;20.10;40.30;;;;;;4795315;29;20149;-78
2022/04/01 09:33:51;;;;;;;12.65;3.80;;;19.80;40.20;;;;;;4824188;29;20082;-79
2022/04/01 09:36:21;;;;;;;12.52;3.58;;;19.90;39.60;;;;;;4826039;29;20054;-81
2022/04/01 09:38:57;;;;;;;37.38;4.28;;;20.00;39.90;;;;;;4810358;29;20049;-82
2022/04/01 09:41:38;;;;;;;12.23;4.20;;;19.80;40.50;;;;;;4811479;29;20057;-81
2022/04/01 09:44:10;;;;;;;17.83;4.50;;;19.80;40.10;;;;;;4814302;29;20054;-79
2022/04/01 09:46:43;;;;;;;16.23;4.97;;;18.60;40.70;;;;;;4835078;29;20069;-78
2022/04/01 09:49:11;;;;;;;15.00;4.47;;;16.40;42.10;;;;;;4826424;29;20062;-80
2022/04/01 09:51:44;;;;;;;21.55;4.63;;;14.70;45.30;;;;;;4817035;29;20058;-80
2022/04/01 09:54:12;;;;;;;13.07;4.55;;;13.30;48.20;;;;;;4829024;29;20072;-77
2022/04/01 09:56:54;;;;;;;17.20;4.32;;;12.00;49.70;;;;;;4821640;29;20487;-77
2022/04/01 09:59:31;;;;;;;17.45;3.50;;;10.90;51.00;;;;;;4801593;29;20054;-81
2022/04/01 10:02:00;;;;;;;17.88;4.95;;;10.10;53.30;;;;;;4816748;29;20061;-80
2022/04/01 10:04:28;;;;;;;12.20;3.65;;;9.40;54.60;;;;;;4819010;29;20535;-80
2022/04/01 10:06:56;;;;;;;12.70;4.18;;;8.90;55.20;;;;;;4803595;29;20057;-79
2022/04/01 10:09:27;;;;;;;7.15;3.38;;;8.50;55.50;;;;;;4816963;29;20465;-79
2022/04/01 10:11:55;;;;;;;8.20;3.83;;;;;;;;;;4818271;29;20065;-79
2022/04/01 10:14:27;;;;;;;14.73;4.63;;;8.10;56.30;;;;;;4786674;29;20058;-80
2022/04/01 10:16:56;;;;;;;12.30;4.03;;;7.90;57.00;;;;;;4803706;29;20267;-79
2022/04/01 10:19:30;;;;;;;12.85;3.53;;;7.80;57.10;;;;;;4801879;29;20137;-76
2022/04/01 10:21:58;;;;;;;31.83;4.05;;;7.80;56.90;;;;;;4813118;29;20065;-76
2022/04/01 10:24:43;;;;;;;13.73;3.60;;;7.90;56.50;;;;;;4817735;29;20151;-80
2022/04/01 10:27:24;;;;;;;11.85;4.13;;;8.00;56.30;;;;;;4818005;29;20062;-75
2022/04/01 10:29:57;;;;;;;16.95;3.92;;;8.10;55.90;;;;;;4818926;29;20440;-79
2022/04/01 10:32:28;;;;;;;15.32;3.88;;;8.20;55.50;;;;;;4788022;29;20059;-81
2022/04/01 10:34:58;;;;;;;19.23;3.80;;;8.20;54.90;;;;;;4819014;29;20161;-76
2022/04/01 10:37:28;;;;;;;17.70;4.18;;;8.20;55.20;;;;;;4818421;29;20089;-76
2022/04/01 10:40:00;;;;;;;13.77;3.08;;;8.20;54.40;;;;;;4819348;29;20058;-77
2022/04/01 10:42:33;;;;;;;14.85;2.60;;;8.50;53.90;;;;;;4819773;29;20087;-75
2022/04/01 10:45:08;;;;;;;9.02;3.17;;;8.60;53.90;;;;;;4820492;29;20134;-75
2022/04/01 10:53:41;;;;;;;13.63;2.80;;;8.70;52.90;;;;;;4801033;29;20059;-78
2022/04/01 10:56:29;;;;;;;22.13;2.90;;;8.40;52.50;;;;;;4794045;29;20058;-79
2022/04/01 10:59:06;;;;;;;8.98;2.75;;;8.20;53.30;;;;;;4802473;29;20066;-75
2022/04/01 11:01:43;;;;;;;7.18;2.47;;;8.00;52.70;;;;;;4786514;29;20050;-79
2022/04/01 11:04:31;;;;;;;9.38;3.25;;;8.00;53.10;;;;;;4798363;29;20054;-77
2022/04/01 11:07:01;;;;;;;4.80;2.45;;;8.50;52.40;;;;;;4792481;29;20449;-79
2022/04/01 11:09:47;;;;;;;8.38;2.72;;;9.40;52.30;;;;;;4814951;29;20063;-79
2022/04/01 11:12:34;;;;;;;14.15;3.50;;;9.60;52.00;;;;;;4818846;29;20111;-80
2022/04/01 11:15:20;;;;;;;9.13;3.05;;;9.00;50.90;;;;;;4817612;29;20108;-79
2022/04/01 11:18:11;;;;;;;7.93;2.80;;;8.60;52.80;;;;;;4814548;29;20050;-79
2022/04/01 11:20:40;;;;;;;18.65;3.03;;;8.40;52.40;;;;;;4802159;29;20062;-78
2022/04/01 11:23:12;;;;;;;15.60;3.05;;;8.40;53.10;;;;;;4833576;29;20543;-78
2022/04/01 11:25:54;;;;;;;23.52;3.33;;;8.90;53.30;;;;;;4802082;29;20619;-79
2022/04/01 11:28:24;;;;;;;18.65;3.15;;;9.70;52.30;;;;;;4807270;29;20536;-81
2022/04/01 11:31:12;;;;;;;6.70;3.00;;;11.00;51.20;;;;;;4818541;29;20424;-81
2022/04/01 11:34:01;;;;;;;18.50;3.47;;;12.40;47.60;;;;;;4817379;29;20153;-81
2022/04/01 11:36:31;;;;;;;9.38;3.08;;;12.80;46.30;;;;;;4815473;29;20077;-81
2022/04/01 11:38:59;;;;;;;13.23;3.17;;;13.40;45.90;;;;;;4822202;29;20058;-78
2022/04/01 11:41:27;;;;;;;18.05;3.10;;;14.30;43.90;;;;;;4799428;29;20050;-80
2022/04/01 11:43:54;;;;;;;12.48;2.83;;;14.60;43.40;;;;;;4805357;29;20080;-83
2022/04/01 11:46:22;;;;;;;14.50;4.40;;;14.90;43.10;;;;;;4819615;29;20063;-82
2022/04/01 11:48:51;;;;;;;14.85;3.28;;;15.40;42.80;;;;;;4821443;29;20119;-77
2022/04/01 11:51:23;;;;;;;13.85;3.85;;;15.70;43.10;;;;;;4820508;29;20085;-77
2022/04/01 11:53:56;;;;;;;10.55;2.65;;;15.80;42.40;;;;;;4805513;29;20152;-77
2022/04/01 11:56:27;;;;;;;10.20;3.00;;;15.70;40.50;;;;;;4803811;29;20466;-80
2022/04/01 11:59:01;;;;;;;11.25;3.28;;;15.10;40.80;;;;;;4797924;29;20080;-79
2022/04/01 12:01:31;;;;;;;8.80;3.65;;;13.80;41.70;;;;;;4815740;29;20066;-80
2022/04/01 12:04:08;;;;;;;;;;;12.50;43.20;;;;;;4803147;29;20058;-80
2022/04/01 12:09:30;;;;;;;11.18;3.33;;;10.40;46.00;;;;;;4796695;29;20199;-79
2022/04/01 12:12:01;;;;;;;14.07;3.40;;;9.70;48.60;;;;;;4805623;29;20082;-80
2022/04/01 12:14:30;;;;;;;8.50;3.47;;;9.30;49.60;;;;;;4820117;29;20058;-78
2022/04/01 12:17:05;;;;;;;14.20;3.83;;;9.00;50.70;;;;;;4799706;29;20074;-78
2022/04/01 12:19:34;;;;;;;15.82;4.05;;;8.80;51.00;;;;;;4804478;29;20050;-78
2022/04/01 12:22:01;;;;;;;16.92;4.22;;;8.50;50.70;;;;;;4801740;29;20588;-82
2022/04/01 12:24:31;;;;;;;14.73;4.13;;;8.40;51.00;;;;;;4819702;29;20157;-85
2022/04/01 12:27:00;;;;;;;15.85;3.03;;;8.20;50.70;;;;;;4803920;29;20086;-83
2022/04/01 12:29:30;;;;;;;13.75;3.90;;;8.30;51.80;;;;;;4829981;29;20081;-80
2022/04/01 12:31:59;;;;;;;17.98;4.28;;;8.70;51.70;;;;;;4819526;29;20427;-84
2022/04/01 12:34:28;;;;;;;11.68;3.72;;;8.70;51.60;;;;;;4818152;29;20058;-85
2022/04/01 12:37:00;;;;;;;15.90;3.60;;;8.60;51.70;;;;;;4820743;29;20503;-76
2022/04/01 12:39:29;;;;;;;15.95;3.97;;;8.50;53.80;;;;;;4820352;29;20068;-78
2022/04/01 12:42:01;;;;;;;13.90;3.45;;;8.40;52.50;;;;;;4808171;29;20598;-80
2022/04/01 12:44:32;;;;;;;12.63;4.25;;;8.60;53.50;;;;;;4820632;29;20066;-79
2022/04/01 12:47:03;;;;;;;14.32;4.28;;;9.50;52.80;;;;;;4813215;29;20066;-76
2022/04/01 12:49:33;;;;;;;20.40;5.25;;;11.30;49.90;;;;;;4823199;29;20058;-84
2022/04/01 12:52:05;;;;;;;16.92;4.20;;;11.70;46.20;;;;;;4800466;29;20058;-81
2022/04/01 12:54:39;;;;;;;15.60;4.95;;;11.20;46.60;;;;;;4821525;29;20062;-82
2022/04/01 12:57:09;;;;;;;14.68;4.72;;;10.50;48.30;;;;;;4825176;29;20046;-81
2022/04/01 12:59:39;;;;;;;19.70;4.70;;;10.00;49.40;;;;;;4821572;29;20500;-74
2022/04/01 13:02:09;;;;;;;22.77;5.22;;;9.60;50.30;;;;;;4815716;29;20149;-79
2022/04/01 13:04:42;;;;;;;13.20;4.47;;;9.40;51.50;;;;;;4804799;29;20089;-76
2022/04/01 13:07:18;;;;;;;9.88;4.03;;;9.00;51.90;;;;;;4821172;29;20495;-78
2022/04/01 13:09:51;;;;;;;19.70;5.05;;;9.00;52.30;;;;;;4821809;29;20134;-76
2022/04/01 13:12:20;;;;;;;;;;;8.70;52.60;;;;;;4818435;29;20484;-77
2022/04/01 13:15:00;;;;;;;21.17;4.40;;;8.30;52.60;;;;;;4821487;29;19979;-76
2022/04/01 13:17:28;;;;;;;12.68;3.70;;;7.80;52.90;;;;;;4815346;29;20063;-76
2022/04/01 13:19:56;;;;;;;12.02;4.72;;;7.50;54.50;;;;;;4815863;29;20084;-77
2022/04/01 13:22:25;;;;;;;18.40;3.83;;;7.30;55.10;;;;;;4820164;29;20145;-75
2022/04/01 13:24:56;;;;;;;15.57;4.20;;;7.10;55.60;;;;;;4839159;29;20149;-78
2022/04/01 13:27:24;;;;;;;18.60;3.53;;;7.00;55.70;;;;;;4820946;29;20495;-78
2022/04/01 13:29:54;;;;;;;14.75;4.45;;;6.90;56.00;;;;;;4815937;29;20054;-77